CST,Max TemperatureF,Mean TemperatureF,Min TemperatureF,Max Dew PointF,MeanDew PointF,Min DewpointF,Max Humidity, Mean Humidity, Min Humidity, Max Sea Level PressureIn, Mean Sea Level PressureIn, Min Sea Level PressureIn, Max VisibilityMiles, Mean VisibilityMiles, Min VisibilityMiles, Max Wind SpeedMPH, Mean Wind SpeedMPH, Max Gust SpeedMPH,PrecipitationIn, CloudCover, Events, WindDirDegrees
2013-2-1,-2,-14,-27,-9,-21,-36,84,68,59,30.25,30.13,30.04,10,9,2,13,5,,0.00,4,Rain,184
2013-2-2,6,-7,-20,0,-11,-27,85,74,63,30.19,30.07,29.96,10,9,1,15,6,21,0.00,4,Rain-Snow,205
2013-2-3,3,2,0,-4,-5,-8,85,77,72,30.07,30.05,30.04,10,10,10,6,3,,0.00,8,,189
2013-2-4,15,8,1,14,6,-4,93,82,72,30.04,29.78,29.52,10,7,0,20,10,25,0.01,7,Fog-Rain-Snow,186
2013-2-5,10,4,-2,9,-3,-8,92,78,66,30.07,29.95,29.64,10,9,2,17,12,21,0.00,6,Rain-Snow,340
2013-2-6,15,10,5,12,7,0,93,85,78,30.21,30.01,29.92,10,6,0,15,9,21,1.24,6,Snow,75
2013-2-7,10,5,0,5,2,-4,92,83,72,30.33,30.28,30.20,10,10,9,12,7,,0.00,4,,346
2013-2-8,23,16,8,23,15,5,100,90,80,30.28,30.15,29.99,10,9,3,22,11,28,0.00,6,,169
2013-2-9,26,24,23,25,24,23,100,98,93,29.99,29.91,29.87,10,5,2,14,10,,0.00,8,,201
2013-2-10,28,26,23,27,24,19,100,97,86,29.89,29.82,29.74,10,4,1,25,10,36,0.02,8,Rain-Snow,356
2013-2-11,24,16,8,19,12,5,100,83,68,29.98,29.91,29.79,10,8,2,26,17,34,0.03,6,Rain-Snow,307
2013-2-12,35,18,1,27,17,0,100,80,64,29.79,29.72,29.66,10,10,8,17,10,26,0.00,2,,253
2013-2-13,28,24,19,25,20,16,100,88,74,29.83,29.68,29.63,10,10,2,14,8,,0.00,2,,325
2013-2-14,19,8,-2,16,4,-8,92,77,62,30.27,30.12,29.84,10,9,1,20,12,24,0.00,2,,339
2013-2-15,15,3,-9,7,-1,-13,92,78,62,30.36,30.30,30.20,10,10,8,9,5,,0.00,1,Snow,286
2013-2-16,15,5,-5,14,3,-9,93,85,78,30.19,30.02,29.84,10,9,5,22,8,26,0.00,3,,170
2013-2-17,32,24,15,30,23,16,100,94,86,29.83,29.57,29.42,10,7,0,22,17,30,2.96,5,Rain-Snow,179
2013-2-18,23,8,-7,23,0,-15,100,83,65,30.24,29.92,29.54,5,1,0,34,27,54,3.50,7,Rain-Snow,344
2013-2-19,-4,-8,-13,-13,-18,-20,71,65,50,30.53,30.43,30.25,10,6,2,25,20,33,0.10,0,Rain,342
2013-2-20,5,-8,-18,-4,-14,-26,78,68,59,30.54,30.47,30.35,10,10,6,8,5,,0.10,0,Rain-Snow,92
2013-2-21,15,8,1,7,0,-6,85,71,57,30.39,30.32,30.21,10,10,10,16,7,16,0.00,2,,151
2013-2-22,15,8,0,14,4,-2,100,80,62,30.21,30.05,29.91,10,8,0,7,2,,0.00,2,Fog,323
2013-2-23,19,12,5,19,12,1,100,93,85,29.92,29.87,29.84,10,6,0,12,7,,0.00,5,Fog-Snow,176
2013-2-24,24,12,0,23,10,-2,100,91,85,29.99,29.96,29.92,10,8,0,12,7,,0.00,3,Fog,190
2013-2-25,32,16,0,27,14,-4,100,87,74,30.01,29.95,29.89,10,9,4,16,7,,0.00,0,,191
2013-2-26,26,16,6,23,14,5,100,88,74,30.11,30.00,29.90,10,8,3,13,9,,0.00,0,,191
2013-2-27,26,20,14,23,18,14,100,87,80,30.27,30.18,30.11,10,10,4,22,13,31,0.00,1,,337
2013-2-28,21,14,8,16,12,7,92,83,73,30.36,30.33,30.27,10,10,10,15,12,20,0.00,3,,337